createdAt,value
2019-05-17T00:00:10.878Z,48.42
2019-05-17T00:00:48.709Z,58.77
2019-05-17T00:01:27.074Z,47.43
2019-05-17T00:02:06.972Z,53.70
2019-05-17T00:02:46.565Z,47.80
2019-05-17T00:03:26.945Z,50.30
2019-05-17T00:04:07.245Z,49.67
2019-05-17T00:04:46.980Z,43.37
2019-05-17T00:05:26.467Z,50.07
2019-05-17T00:06:06.749Z,55.63
2019-05-17T00:06:44.382Z,54.45
2019-05-17T00:07:22.664Z,44.37
2019-05-17T00:08:02.871Z,58.38
2019-05-17T00:08:40.631Z,50.55
2019-05-17T00:09:20.710Z,52.13
2019-05-17T00:10:00.130Z,62.85
2019-05-17T00:10:37.793Z,46.95
2019-05-17T00:11:17.362Z,44.93
2019-05-17T00:11:56.824Z,59.58
2019-05-17T00:12:36.817Z,47.62
2019-05-17T00:13:14.723Z,62.27
2019-05-17T00:13:53.851Z,41.80
2019-05-17T00:14:31.397Z,47.50
2019-05-17T00:15:10.294Z,55.12
2019-05-17T00:15:48.302Z,61.18
2019-05-17T00:16:28.326Z,50.23
2019-05-17T00:17:06.846Z,60.20
2019-05-17T00:17:46.920Z,63.85
2019-05-17T00:18:23.597Z,54.70
2019-05-17T00:19:01.612Z,53.95
2019-05-17T00:19:39.602Z,53.13
2019-05-17T00:20:17.680Z,55.85
2019-05-17T00:20:56.931Z,59.67
2019-05-17T00:21:36.964Z,48.17
2019-05-17T00:22:16.700Z,55.40
2019-05-17T00:22:57.225Z,57.33
2019-05-17T00:23:37.337Z,47.35
2019-05-17T00:24:13.770Z,57.33
2019-05-17T00:24:51.538Z,67.50
2019-05-17T00:25:29.630Z,56.40
2019-05-17T00:26:07.552Z,54.95
2019-05-17T00:26:46.720Z,54.70
2019-05-17T00:27:26.501Z,48.83
2019-05-17T00:28:04.255Z,59.40
2019-05-17T00:28:42.636Z,45.00
2019-05-17T00:29:21.569Z,58.50
2019-05-17T00:29:59.150Z,53.47
2019-05-17T00:30:37.557Z,50.67
2019-05-17T00:31:17.178Z,67.83
2019-05-17T00:31:56.850Z,66.07
2019-05-17T00:32:38.263Z,47.10
2019-05-17T00:33:17.061Z,66.55
2019-05-17T00:33:56.211Z,67.78
2019-05-17T00:34:34.164Z,60.57
2019-05-17T00:35:13.740Z,62.43
2019-05-17T00:35:51.610Z,59.27
2019-05-17T00:36:29.774Z,53.30
2019-05-17T00:37:08.932Z,68.60
2019-05-17T00:37:46.570Z,64.10
2019-05-17T00:38:24.390Z,52.55
2019-05-17T00:39:03.250Z,53.67
2019-05-17T00:39:40.678Z,66.57
2019-05-17T00:40:19.046Z,55.30
2019-05-17T00:40:57.152Z,75.60
2019-05-17T00:41:37.302Z,58.90
2019-05-17T00:42:16.852Z,66.97
2019-05-17T00:42:54.284Z,65.10
2019-05-17T00:43:31.899Z,60.60
2019-05-17T00:44:10.264Z,72.93
2019-05-17T00:44:48.084Z,73.30
2019-05-17T00:45:26.770Z,77.00
2019-05-17T00:46:06.505Z,70.90
2019-05-17T00:46:46.593Z,64.47
2019-05-17T00:47:23.666Z,71.67
2019-05-17T00:48:01.715Z,71.80
2019-05-17T00:48:39.406Z,80.30
2019-05-17T00:49:17.494Z,79.92
2019-05-17T00:49:57.010Z,71.87
2019-05-17T00:50:37.517Z,60.10
2019-05-17T00:51:13.522Z,81.83
2019-05-17T00:51:51.514Z,74.55
2019-05-17T00:52:29.118Z,64.90
2019-05-17T00:53:07.376Z,72.90
2019-05-17T00:53:46.847Z,76.10
2019-05-17T00:54:26.896Z,64.35
2019-05-17T00:55:06.783Z,69.23
2019-05-17T00:55:46.652Z,82.33
2019-05-17T00:56:26.487Z,74.70
2019-05-17T00:57:03.260Z,64.83
2019-05-17T00:57:40.655Z,71.87
2019-05-17T00:58:18.979Z,70.03
2019-05-17T00:58:58.864Z,70.95
2019-05-17T00:59:39.694Z,83.07
2019-05-17T01:00:23.060Z,80.63
2019-05-17T01:01:01.019Z,57.87
2019-05-17T01:01:39.386Z,63.30
2019-05-17T01:02:17.672Z,64.43
2019-05-17T01:02:57.321Z,91.73
2019-05-17T01:03:36.319Z,70.33
2019-05-17T01:04:14.308Z,69.93
2019-05-17T01:04:51.738Z,86.20
2019-05-17T01:05:30.185Z,78.33
2019-05-17T01:06:10.196Z,78.50
2019-05-17T01:06:47.726Z,75.70
2019-05-17T01:07:26.910Z,83.22
2019-05-17T01:08:07.187Z,70.13
2019-05-17T01:08:47.480Z,62.77
2019-05-17T01:09:27.231Z,83.47
2019-05-17T01:10:07.171Z,77.50
2019-05-17T01:11:03.477Z,65.40
2019-05-17T01:11:41.411Z,69.33
2019-05-17T01:12:19.580Z,74.93
2019-05-17T01:12:57.654Z,79.40
2019-05-17T01:13:37.383Z,85.73
2019-05-17T01:14:17.538Z,71.90
2019-05-17T01:14:55.343Z,72.67
2019-05-17T01:15:32.782Z,68.73
2019-05-17T01:16:10.810Z,65.37
2019-05-17T01:16:47.954Z,65.03
2019-05-17T01:17:27.058Z,64.87
2019-05-17T01:18:07.306Z,88.53
2019-05-17T01:18:44.425Z,73.83
2019-05-17T01:19:23.806Z,72.77
2019-05-17T01:20:06.824Z,90.95
2019-05-17T01:20:43.772Z,78.10
2019-05-17T01:21:22.004Z,74.97
2019-05-17T01:21:59.494Z,79.40
2019-05-17T01:22:36.883Z,74.87
2019-05-17T01:23:16.537Z,84.03
2019-05-17T01:23:56.175Z,83.70
2019-05-17T01:24:33.382Z,74.20
2019-05-17T01:25:12.300Z,68.33
2019-05-17T01:25:49.700Z,73.20
2019-05-17T01:26:27.512Z,79.10
2019-05-17T01:27:06.550Z,75.33
2019-05-17T01:27:44.394Z,79.30
2019-05-17T01:28:26.776Z,85.57
2019-05-17T01:29:06.742Z,66.87
2019-05-17T01:29:47.478Z,72.23
2019-05-17T01:30:26.659Z,87.17
2019-05-17T01:31:03.716Z,76.73
2019-05-17T01:31:42.548Z,66.80
2019-05-17T01:32:19.688Z,80.87
2019-05-17T01:32:57.505Z,70.60
2019-05-17T01:33:36.723Z,79.43
2019-05-17T01:34:16.468Z,70.13
2019-05-17T01:34:56.308Z,75.60
2019-05-17T01:35:33.174Z,86.43
2019-05-17T01:36:10.866Z,79.77
2019-05-17T01:36:48.934Z,77.33
2019-05-17T01:37:27.712Z,85.90
2019-05-17T01:38:07.047Z,76.97
2019-05-17T01:38:46.775Z,73.40
2019-05-17T01:39:26.747Z,77.00
2019-05-17T01:40:03.210Z,86.33
2019-05-17T01:40:41.379Z,82.77
2019-05-17T01:41:19.306Z,80.50
2019-05-17T01:41:57.380Z,64.93
2019-05-17T01:42:39.374Z,74.87
2019-05-17T01:43:17.567Z,68.17
2019-05-17T01:43:56.791Z,59.67
2019-05-17T01:44:36.603Z,76.00
2019-05-17T01:45:16.833Z,81.87
2019-05-17T01:45:57.434Z,72.80
2019-05-17T01:46:37.013Z,68.33
2019-05-17T01:47:16.679Z,85.70
2019-05-17T01:47:53.636Z,66.23
2019-05-17T01:48:32.116Z,65.53
2019-05-17T01:49:09.482Z,72.23
2019-05-17T01:49:47.072Z,79.00
2019-05-17T01:50:26.650Z,92.03
2019-05-17T01:51:04.522Z,70.03
2019-05-17T01:51:41.426Z,72.90
2019-05-17T01:52:19.548Z,73.03
2019-05-17T01:52:58.177Z,73.23
2019-05-17T01:53:36.448Z,79.80
2019-05-17T01:54:14.544Z,86.07
2019-05-17T01:54:52.368Z,81.03
2019-05-17T01:55:29.166Z,75.57
2019-05-17T01:56:07.326Z,74.67
2019-05-17T01:56:46.238Z,80.00
2019-05-17T01:57:23.867Z,78.83
2019-05-17T01:58:00.889Z,78.03
2019-05-17T01:58:38.566Z,74.60
2019-05-17T01:59:17.330Z,81.73
2019-05-17T01:59:57.116Z,70.07
2019-05-17T02:00:37.705Z,83.17
2019-05-17T02:01:16.890Z,73.70
2019-05-17T02:01:56.593Z,81.80
2019-05-17T02:02:54.357Z,71.63
2019-05-17T02:03:32.168Z,76.60
2019-05-17T02:04:09.732Z,70.87
2019-05-17T02:04:48.131Z,71.63
2019-05-17T02:05:27.390Z,86.73
2019-05-17T02:06:07.412Z,66.43
2019-05-17T02:06:46.732Z,78.90
2019-05-17T02:07:26.628Z,97.27
2019-05-17T02:08:06.426Z,67.40
2019-05-17T02:08:43.726Z,84.77
2019-05-17T02:09:34.866Z,73.50
2019-05-17T02:10:01.354Z,70.17
2019-05-17T02:10:39.327Z,70.37
2019-05-17T02:11:18.450Z,84.63
2019-05-17T02:11:57.217Z,74.63
2019-05-17T02:12:37.208Z,81.43
2019-05-17T02:13:16.448Z,77.87
2019-05-17T02:13:56.333Z,80.63
2019-05-17T02:14:34.390Z,91.37
2019-05-17T02:15:12.279Z,89.97
2019-05-17T02:15:50.526Z,89.30
2019-05-17T02:16:30.792Z,73.73
2019-05-17T02:17:10.641Z,96.87
2019-05-17T02:17:50.938Z,109.10
2019-05-17T02:18:28.860Z,89.60
2019-05-17T02:19:06.868Z,100.02
2019-05-17T02:19:46.618Z,81.60
2019-05-17T02:20:24.847Z,84.47
2019-05-17T02:21:03.330Z,100.40
2019-05-17T02:21:43.047Z,89.67
2019-05-17T02:22:20.672Z,87.13
2019-05-17T02:22:58.227Z,102.47
2019-05-17T02:23:37.242Z,89.67
2019-05-17T02:24:16.774Z,95.97
2019-05-17T02:24:53.628Z,91.03
2019-05-17T02:25:31.960Z,85.70
2019-05-17T02:26:10.789Z,90.28
2019-05-17T02:26:47.969Z,100.23
2019-05-17T02:27:31.586Z,95.00
2019-05-17T02:28:06.686Z,82.70
2019-05-17T02:28:44.298Z,97.53
2019-05-17T02:29:24.812Z,83.03
2019-05-17T02:30:05.016Z,107.27
2019-05-17T02:30:44.106Z,92.63
2019-05-17T02:31:24.744Z,78.03
2019-05-17T02:32:05.513Z,91.67
2019-05-17T02:32:43.925Z,83.13
2019-05-17T02:33:23.596Z,99.93
2019-05-17T02:34:03.116Z,100.82
2019-05-17T02:34:44.039Z,90.07
2019-05-17T02:35:23.134Z,86.97
2019-05-17T02:36:02.819Z,98.20
2019-05-17T02:36:43.148Z,104.73
2019-05-17T02:37:22.909Z,94.60
2019-05-17T02:38:02.618Z,85.47
2019-05-17T02:38:38.682Z,110.28
2019-05-17T02:39:16.952Z,112.73
2019-05-17T02:40:02.908Z,98.87
2019-05-17T02:40:34.393Z,102.27
2019-05-17T02:41:14.160Z,90.70
2019-05-17T02:41:53.429Z,92.00
2019-05-17T02:42:33.316Z,107.85
2019-05-17T02:43:13.754Z,106.75
2019-05-17T02:43:53.451Z,104.67
2019-05-17T02:44:33.503Z,100.77
2019-05-17T02:45:13.269Z,123.50
2019-05-17T02:45:52.784Z,102.10
2019-05-17T02:46:33.571Z,106.20
2019-05-17T02:47:13.309Z,108.30
2019-05-17T02:47:53.445Z,117.43
2019-05-17T02:48:29.113Z,90.80
2019-05-17T02:49:07.188Z,105.53
2019-05-17T02:49:45.354Z,120.10
2019-05-17T02:50:23.845Z,104.77
2019-05-17T02:51:03.463Z,115.33
2019-05-17T02:51:43.108Z,96.87
2019-05-17T02:52:22.879Z,94.25
2019-05-17T02:53:04.518Z,92.82
2019-05-17T02:53:42.862Z,80.45
2019-05-17T02:54:23.229Z,83.87
2019-05-17T02:55:03.669Z,100.62
2019-05-17T02:55:39.351Z,90.33
2019-05-17T02:56:16.837Z,100.90
2019-05-17T02:56:55.206Z,79.42
2019-05-17T02:57:34.681Z,84.25
2019-05-17T02:58:13.064Z,80.60
2019-05-17T02:58:53.352Z,80.03
2019-05-17T02:59:33.025Z,106.95
2019-05-17T03:00:13.441Z,93.15
2019-05-17T03:00:53.317Z,80.23
2019-05-17T03:01:32.827Z,103.62
2019-05-17T03:02:12.324Z,77.12
2019-05-17T03:02:49.717Z,82.90
2019-05-17T03:03:27.501Z,81.07
2019-05-17T03:04:05.570Z,83.63
2019-05-17T03:04:43.689Z,71.50
2019-05-17T03:05:23.231Z,82.27
2019-05-17T03:06:02.992Z,103.72
2019-05-17T03:06:43.939Z,84.35
2019-05-17T03:07:23.168Z,85.03
2019-05-17T03:08:03.932Z,88.45
2019-05-17T03:08:42.930Z,77.67
2019-05-17T03:09:22.921Z,90.47
2019-05-17T03:10:13.646Z,78.78
2019-05-17T03:10:43.320Z,91.70
2019-05-17T03:11:22.612Z,85.45
2019-05-17T03:12:03.325Z,78.27
2019-05-17T03:12:39.959Z,89.43
2019-05-17T03:13:18.357Z,76.67
2019-05-17T03:13:56.169Z,86.20
2019-05-17T03:14:37.272Z,98.17
2019-05-17T03:15:15.913Z,84.50
2019-05-17T03:15:56.493Z,79.50
2019-05-17T03:16:42.728Z,98.30
2019-05-17T03:17:22.707Z,74.27
2019-05-17T03:18:03.204Z,92.30
2019-05-17T03:18:39.374Z,82.60
2019-05-17T03:19:17.727Z,82.13
2019-05-17T03:19:57.532Z,87.20
2019-05-17T03:20:35.661Z,80.15
2019-05-17T03:21:13.877Z,85.00
2019-05-17T03:21:53.523Z,91.63
2019-05-17T03:22:33.259Z,93.37
2019-05-17T03:23:12.682Z,71.07
2019-05-17T03:23:53.765Z,85.15
2019-05-17T03:24:33.296Z,82.02
2019-05-17T03:25:13.632Z,79.53
2019-05-17T03:25:52.452Z,103.65
2019-05-17T03:26:32.793Z,87.97
2019-05-17T03:27:13.410Z,88.10
2019-05-17T03:27:53.347Z,90.37
2019-05-17T03:28:33.418Z,92.37
2019-05-17T03:29:13.356Z,86.60
2019-05-17T03:29:49.548Z,90.12
2019-05-17T03:30:27.908Z,92.70
2019-05-17T03:31:16.801Z,77.70
2019-05-17T03:32:00.065Z,93.42
2019-05-17T03:32:36.159Z,104.03
2019-05-17T03:33:16.478Z,91.45
2019-05-17T03:33:57.789Z,93.72
2019-05-17T03:34:37.656Z,97.20
2019-05-17T03:35:17.947Z,79.97
2019-05-17T03:35:57.307Z,92.20
2019-05-17T03:36:36.977Z,103.00
2019-05-17T03:37:16.802Z,95.90
2019-05-17T03:37:54.666Z,97.33
2019-05-17T03:38:35.238Z,88.03
2019-05-17T03:39:13.346Z,87.20
2019-05-17T03:39:53.602Z,92.10
2019-05-17T03:41:00.961Z,89.53
2019-05-17T03:41:22.181Z,88.27
2019-05-17T03:41:53.549Z,95.00
2019-05-17T03:42:33.136Z,82.10
2019-05-17T03:43:13.851Z,90.25
2019-05-17T03:43:53.302Z,98.90
2019-05-17T03:44:33.208Z,90.73
2019-05-17T03:45:13.706Z,98.45
2019-05-17T03:45:53.431Z,83.07
2019-05-17T03:46:33.392Z,92.88
2019-05-17T03:47:13.097Z,103.27
2019-05-17T03:47:53.267Z,96.17
2019-05-17T03:48:39.717Z,103.10
2019-05-17T03:49:17.902Z,98.37
2019-05-17T03:49:55.028Z,86.08
2019-05-17T03:50:34.053Z,96.07
2019-05-17T03:51:13.120Z,104.43
2019-05-17T03:51:52.977Z,105.67
2019-05-17T03:52:33.084Z,89.53
2019-05-17T03:53:12.897Z,81.60
2019-05-17T03:53:49.117Z,94.97
2019-05-17T03:54:27.078Z,93.17
2019-05-17T03:55:08.423Z,99.75
2019-05-17T03:55:44.822Z,96.30
2019-05-17T03:56:22.599Z,93.23
2019-05-17T03:57:02.974Z,102.87
2019-05-17T03:57:39.488Z,98.97
2019-05-17T03:58:16.896Z,91.27
2019-05-17T03:58:54.866Z,96.92
2019-05-17T03:59:33.678Z,111.32
2019-05-17T04:00:13.583Z,112.33
2019-05-17T04:00:53.399Z,102.13
2019-05-17T04:01:32.832Z,100.47
2019-05-17T04:02:12.453Z,91.77
2019-05-17T04:02:53.345Z,101.83
2019-05-17T04:03:35.353Z,88.10
2019-05-17T04:04:13.374Z,113.10
2019-05-17T04:04:52.990Z,113.43
2019-05-17T04:05:33.070Z,100.05
2019-05-17T04:06:13.065Z,89.35
2019-05-17T04:06:52.415Z,98.47
2019-05-17T04:07:28.401Z,96.13
2019-05-17T04:08:06.277Z,112.37
2019-05-17T04:08:44.665Z,113.47
2019-05-17T04:09:22.543Z,95.53
2019-05-17T04:10:04.157Z,103.37
2019-05-17T04:10:42.614Z,101.13
2019-05-17T04:11:27.925Z,96.03
2019-05-17T04:12:02.631Z,100.70
2019-05-17T04:12:38.744Z,103.57
2019-05-17T04:13:16.177Z,101.03
2019-05-17T04:13:54.197Z,85.03
2019-05-17T04:14:33.513Z,96.73
2019-05-17T04:15:13.324Z,95.90
2019-05-17T04:15:54.341Z,95.97
2019-05-17T04:16:33.915Z,99.57
2019-05-17T04:17:13.056Z,93.07
2019-05-17T04:17:56.932Z,94.13
2019-05-17T04:18:35.629Z,95.50
2019-05-17T04:19:13.890Z,101.57
2019-05-17T04:19:53.344Z,108.30
2019-05-17T04:20:33.211Z,105.33
2019-05-17T04:21:12.521Z,94.83
2019-05-17T04:21:53.376Z,101.67
2019-05-17T04:22:32.851Z,103.77
2019-05-17T04:23:12.493Z,87.75
2019-05-17T04:23:49.500Z,102.80
2019-05-17T04:24:27.479Z,106.33
2019-05-17T04:25:05.223Z,96.40
2019-05-17T04:25:43.566Z,100.03
2019-05-17T04:26:22.936Z,107.00
2019-05-17T04:27:03.434Z,91.63
2019-05-17T04:27:43.409Z,104.03
2019-05-17T04:28:22.817Z,109.27
2019-05-17T04:28:58.784Z,98.13
2019-05-17T04:29:36.836Z,107.03
2019-05-17T04:30:15.503Z,99.15
2019-05-17T04:30:53.408Z,85.90
2019-05-17T04:31:34.626Z,96.87
2019-05-17T04:32:12.947Z,108.00
2019-05-17T04:32:52.684Z,111.30
2019-05-17T04:33:29.762Z,106.70
2019-05-17T04:34:07.266Z,93.37
2019-05-17T04:34:44.800Z,103.17
2019-05-17T04:35:23.414Z,108.93
2019-05-17T04:36:02.572Z,95.03
2019-05-17T04:36:42.956Z,96.57
2019-05-17T04:37:22.896Z,105.00
2019-05-17T04:38:03.695Z,107.55
2019-05-17T04:38:39.770Z,109.10
2019-05-17T04:39:17.448Z,100.13
2019-05-17T04:39:55.215Z,88.40
2019-05-17T04:40:34.001Z,110.10
2019-05-17T04:41:14.155Z,99.30
2019-05-17T04:41:54.751Z,113.83
2019-05-17T04:42:33.052Z,104.27
2019-05-17T04:43:13.612Z,84.97
2019-05-17T04:43:53.397Z,107.10
2019-05-17T04:44:32.280Z,100.90
2019-05-17T04:45:12.768Z,97.50
2019-05-17T04:45:53.285Z,108.10
2019-05-17T04:46:32.418Z,90.03
2019-05-17T04:47:09.197Z,97.20
2019-05-17T04:47:52.677Z,107.23
2019-05-17T04:48:34.668Z,107.00
2019-05-17T04:49:13.753Z,100.63
2019-05-17T04:49:53.604Z,90.90
2019-05-17T04:50:33.519Z,97.30
2019-05-17T04:51:13.213Z,112.97
2019-05-17T04:51:52.589Z,87.90
2019-05-17T04:52:33.342Z,80.53
2019-05-17T04:53:12.892Z,95.13
2019-05-17T04:53:52.952Z,79.07
2019-05-17T04:54:29.542Z,86.32
2019-05-17T04:55:08.192Z,71.50
2019-05-17T04:55:46.751Z,74.90
2019-05-17T04:56:24.238Z,80.27
2019-05-17T04:57:02.921Z,75.97
2019-05-17T04:57:44.011Z,74.23
2019-05-17T04:58:22.989Z,80.93
2019-05-17T04:59:02.925Z,90.63
2019-05-17T04:59:39.599Z,79.67
2019-05-17T05:00:17.280Z,85.30
2019-05-17T05:00:55.479Z,91.50
2019-05-17T05:01:34.203Z,82.73
2019-05-17T05:02:13.130Z,96.83
2019-05-17T05:02:52.789Z,93.13
2019-05-17T05:03:32.650Z,109.03
2019-05-17T05:04:09.568Z,86.93
2019-05-17T05:04:48.192Z,91.43
2019-05-17T05:05:26.125Z,111.87
2019-05-17T05:06:03.600Z,95.70
2019-05-17T05:06:43.610Z,116.10
2019-05-17T05:07:22.622Z,102.57
2019-05-17T05:08:03.061Z,99.80
2019-05-17T05:08:42.357Z,97.80
2019-05-17T05:09:19.548Z,93.67
2019-05-17T05:09:56.974Z,97.60
2019-05-17T05:10:38.267Z,81.30
2019-05-17T05:11:17.584Z,96.43
2019-05-17T05:12:01.094Z,81.93
2019-05-17T05:12:35.901Z,88.70
2019-05-17T05:13:13.451Z,86.20
2019-05-17T05:13:53.084Z,88.73
2019-05-17T05:14:33.966Z,97.13
2019-05-17T05:15:15.002Z,79.67
2019-05-17T05:16:34.640Z,88.87
2019-05-17T05:17:12.778Z,89.20
2019-05-17T05:17:52.705Z,84.90
2019-05-17T05:18:32.717Z,94.30
2019-05-17T05:19:12.848Z,88.50
2019-05-17T05:19:49.564Z,98.10
2019-05-17T05:20:26.760Z,100.93
2019-05-17T05:21:04.724Z,98.57
2019-05-17T05:21:43.025Z,96.30
2019-05-17T05:22:22.497Z,89.17
2019-05-17T05:23:05.298Z,78.00
2019-05-17T05:23:43.651Z,76.23
2019-05-17T05:24:22.336Z,80.17
2019-05-17T05:25:02.141Z,86.43
2019-05-17T05:25:42.733Z,93.80
2019-05-17T05:26:18.764Z,69.33
2019-05-17T05:26:56.957Z,91.73
2019-05-17T05:27:34.994Z,77.00
2019-05-17T05:28:12.153Z,91.63
2019-05-17T05:28:52.664Z,98.03
2019-05-17T05:29:32.034Z,87.87
2019-05-17T05:30:08.139Z,104.83
2019-05-17T05:30:46.361Z,82.83
2019-05-17T05:31:25.588Z,104.73
2019-05-17T05:32:03.165Z,83.10
2019-05-17T05:32:42.735Z,93.57
2019-05-17T05:33:22.234Z,100.90
2019-05-17T05:34:01.881Z,94.27
2019-05-17T05:34:39.629Z,101.93
2019-05-17T05:35:22.313Z,111.83
2019-05-17T05:36:02.352Z,96.40
2019-05-17T05:36:41.880Z,99.33
2019-05-17T05:37:23.303Z,89.67
2019-05-17T05:38:02.210Z,89.13
2019-05-17T05:38:42.070Z,83.17
2019-05-17T05:39:22.849Z,100.67
2019-05-17T05:40:02.092Z,90.42
2019-05-17T05:40:41.438Z,107.80
2019-05-17T05:41:19.616Z,107.73
2019-05-17T05:42:06.921Z,98.63
2019-05-17T05:42:36.110Z,106.53
2019-05-17T05:43:13.794Z,102.37
2019-05-17T05:43:52.583Z,97.67
2019-05-17T05:44:32.075Z,87.50
2019-05-17T05:45:12.107Z,104.67
2019-05-17T05:45:49.298Z,106.60
2019-05-17T05:46:27.602Z,118.00
2019-05-17T05:47:05.847Z,97.50
2019-05-17T05:47:43.482Z,99.13
2019-05-17T05:48:21.775Z,98.67
2019-05-17T05:49:01.661Z,103.53
2019-05-17T05:49:38.733Z,101.13
2019-05-17T05:50:17.766Z,101.00
2019-05-17T05:50:56.021Z,118.03
2019-05-17T05:51:32.883Z,92.50
2019-05-17T05:52:12.554Z,98.35
2019-05-17T05:52:52.411Z,96.40
2019-05-17T05:53:32.562Z,115.27
2019-05-17T05:54:12.098Z,114.37
2019-05-17T05:54:51.998Z,102.90
2019-05-17T05:55:32.644Z,90.92
2019-05-17T05:56:13.332Z,100.30
2019-05-17T05:56:52.491Z,115.30
2019-05-17T05:57:32.215Z,115.33
2019-05-17T05:58:13.330Z,109.83
2019-05-17T05:58:52.236Z,103.97
2019-05-17T05:59:31.725Z,111.37
2019-05-17T06:00:15.569Z,92.90
2019-05-17T06:00:55.459Z,106.40
2019-05-17T06:01:33.256Z,110.25
2019-05-17T06:02:12.299Z,89.07
2019-05-17T06:02:52.329Z,109.37
2019-05-17T06:03:32.026Z,113.68
2019-05-17T06:04:11.605Z,95.27
2019-05-17T06:04:48.537Z,100.50
2019-05-17T06:05:27.881Z,77.73
2019-05-17T06:06:12.279Z,102.30
2019-05-17T06:06:48.863Z,77.03
2019-05-17T06:07:28.355Z,89.87
2019-05-17T06:08:06.425Z,98.97
2019-05-17T06:08:44.782Z,96.83
2019-05-17T06:09:22.403Z,86.90
2019-05-17T06:10:02.250Z,86.87
2019-05-17T06:10:43.561Z,82.10
2019-05-17T06:11:25.834Z,75.67
2019-05-17T06:12:18.965Z,74.87
2019-05-17T06:12:46.218Z,75.17
2019-05-17T06:13:25.970Z,81.97
2019-05-17T06:14:03.833Z,79.63
2019-05-17T06:14:41.786Z,82.70
2019-05-17T06:15:21.993Z,84.43
2019-05-17T06:16:02.403Z,75.45
2019-05-17T06:16:42.297Z,79.73
2019-05-17T06:17:18.934Z,81.50
2019-05-17T06:17:56.634Z,83.43
2019-05-17T06:18:35.056Z,85.77
2019-05-17T06:19:12.571Z,72.70
2019-05-17T06:19:51.713Z,70.80
2019-05-17T06:20:32.404Z,75.00
2019-05-17T06:21:12.054Z,74.50
2019-05-17T06:21:52.019Z,70.47
2019-05-17T06:22:31.750Z,67.82
2019-05-17T06:23:08.749Z,65.20
2019-05-17T06:23:47.046Z,66.17
2019-05-17T06:24:24.481Z,84.10
2019-05-17T06:25:03.880Z,69.70
2019-05-17T06:25:43.547Z,68.13
2019-05-17T06:26:23.737Z,67.90
2019-05-17T06:27:01.873Z,62.20
2019-05-17T06:27:44.695Z,60.40
2019-05-17T06:28:24.172Z,62.93
2019-05-17T06:29:02.750Z,50.88
2019-05-17T06:29:41.600Z,57.17
2019-05-17T06:30:21.973Z,48.03
2019-05-17T06:30:59.498Z,55.00
2019-05-17T06:31:37.460Z,52.20
2019-05-17T06:32:15.430Z,52.50
2019-05-17T06:32:53.214Z,61.80
2019-05-17T06:33:34.588Z,39.95
2019-05-17T06:34:13.922Z,48.60
2019-05-17T06:34:51.687Z,37.75
2019-05-17T06:35:32.353Z,37.15
2019-05-17T06:36:10.132Z,40.17
2019-05-17T06:36:48.299Z,38.67
2019-05-17T06:37:26.445Z,39.63
2019-05-17T06:38:04.609Z,34.30
2019-05-17T06:38:42.065Z,40.20
2019-05-17T06:39:22.383Z,34.37
2019-05-17T06:40:02.464Z,29.77
2019-05-17T06:40:41.736Z,34.93
2019-05-17T06:41:21.460Z,31.30
2019-05-17T06:41:58.776Z,34.63
2019-05-17T06:42:40.320Z,31.03
2019-05-17T06:43:16.009Z,29.67
2019-05-17T06:43:54.048Z,26.43
2019-05-17T06:44:34.013Z,23.20
2019-05-17T06:45:12.621Z,20.33
2019-05-17T06:45:52.174Z,17.93
2019-05-17T06:46:32.320Z,21.47
2019-05-17T06:47:11.732Z,28.83
2019-05-17T06:47:51.743Z,16.17
2019-05-17T06:48:28.818Z,15.53
2019-05-17T06:49:07.522Z,26.75
2019-05-17T06:49:46.010Z,21.13
2019-05-17T06:50:23.758Z,18.77
2019-05-17T06:51:02.604Z,14.97
2019-05-17T06:51:42.713Z,15.20
2019-05-17T06:52:22.592Z,17.27
2019-05-17T06:53:03.157Z,16.23
2019-05-17T06:53:40.162Z,17.90
2019-05-17T06:54:21.438Z,17.90
2019-05-17T06:54:58.519Z,14.27
2019-05-17T06:55:36.774Z,16.25
2019-05-17T06:56:14.298Z,22.60
2019-05-17T06:56:55.133Z,14.87
2019-05-17T06:57:33.131Z,14.77
2019-05-17T06:58:11.754Z,16.07
2019-05-17T06:58:49.910Z,15.53
2019-05-17T06:59:28.019Z,14.73
2019-05-17T07:00:12.563Z,16.47
2019-05-17T07:00:46.558Z,13.70
2019-05-17T07:01:24.528Z,17.30
2019-05-17T07:02:02.046Z,18.70
2019-05-17T07:02:41.078Z,15.43
2019-05-17T07:03:19.846Z,14.27
2019-05-17T07:04:00.263Z,18.87
2019-05-17T07:04:39.513Z,11.87
2019-05-17T07:05:22.446Z,16.43
2019-05-17T07:06:02.591Z,12.30
2019-05-17T07:06:40.684Z,15.40
2019-05-17T07:07:30.157Z,17.37
2019-05-17T07:08:07.134Z,12.17
2019-05-17T07:08:45.083Z,14.07
2019-05-17T07:09:23.093Z,16.00
2019-05-17T07:10:03.414Z,15.60
2019-05-17T07:10:41.691Z,15.83
2019-05-17T07:11:21.059Z,14.57
2019-05-17T07:11:59.623Z,9.80
2019-05-17T07:12:53.804Z,14.30
2019-05-17T07:13:19.659Z,14.47
2019-05-17T07:14:14.998Z,12.17
2019-05-17T07:14:53.128Z,13.83
2019-05-17T07:15:43.628Z,12.78
2019-05-17T07:16:10.366Z,11.47
2019-05-17T07:16:50.072Z,10.37
2019-05-17T07:17:30.440Z,13.80
2019-05-17T07:18:10.027Z,14.37
2019-05-17T07:18:49.271Z,10.77
2019-05-17T07:19:30.337Z,11.50
2019-05-17T07:20:10.426Z,12.03
2019-05-17T07:20:49.997Z,10.10
2019-05-17T07:21:29.673Z,8.60
2019-05-17T07:22:06.634Z,16.50
2019-05-17T07:22:44.630Z,14.47
2019-05-17T07:23:22.341Z,29.67
2019-05-17T07:24:02.426Z,20.27
2019-05-17T07:24:40.420Z,18.30
2019-05-17T07:25:19.817Z,12.20
2019-05-17T07:25:59.472Z,13.63
2019-05-17T07:26:39.300Z,13.47
2019-05-17T07:27:19.228Z,11.50
2019-05-17T07:28:00.432Z,10.17
2019-05-17T07:28:37.654Z,10.40
2019-05-17T07:29:15.617Z,12.83
2019-05-17T07:29:53.045Z,9.43
2019-05-17T07:30:30.812Z,9.07
2019-05-17T07:31:10.123Z,7.13
2019-05-17T07:31:49.671Z,6.07
2019-05-17T07:32:30.388Z,7.53
2019-05-17T07:33:09.965Z,8.43
2019-05-17T07:33:47.211Z,7.60
2019-05-17T07:34:25.407Z,9.10
2019-05-17T07:35:02.836Z,8.13
2019-05-17T07:35:42.594Z,7.13
2019-05-17T07:36:20.708Z,8.40
2019-05-17T07:36:59.731Z,6.70
2019-05-17T07:37:36.899Z,7.33
2019-05-17T07:38:16.528Z,8.33
2019-05-17T07:38:54.666Z,6.73
2019-05-17T07:39:34.072Z,9.40
2019-05-17T07:40:13.290Z,4.20
2019-05-17T07:40:51.421Z,12.40
2019-05-17T07:41:31.290Z,10.10
2019-05-17T07:42:14.958Z,8.73
2019-05-17T07:43:05.735Z,6.67
2019-05-17T07:43:34.682Z,5.17
2019-05-17T07:44:12.774Z,9.90
2019-05-17T07:44:50.469Z,6.87
2019-05-17T07:45:29.461Z,4.70
2019-05-17T07:46:09.743Z,4.43
2019-05-17T07:46:51.688Z,7.03
2019-05-17T07:47:26.053Z,7.60
2019-05-17T07:48:04.139Z,6.27
2019-05-17T07:48:44.692Z,5.40
2019-05-17T07:49:26.513Z,5.40
2019-05-17T07:50:06.344Z,5.80
2019-05-17T07:50:44.748Z,5.63
2019-05-17T07:51:22.453Z,4.87
2019-05-17T07:52:00.739Z,4.27
2019-05-17T07:52:39.909Z,5.03
2019-05-17T07:53:17.242Z,5.40
2019-05-17T07:53:55.516Z,5.10
2019-05-17T07:54:39.904Z,3.70
2019-05-17T07:55:22.283Z,3.97
2019-05-17T07:55:59.961Z,4.30
2019-05-17T07:56:40.307Z,4.37
2019-05-17T07:57:20.576Z,3.50
2019-05-17T07:58:00.100Z,3.10
2019-05-17T07:58:37.058Z,4.20
2019-05-17T07:59:14.716Z,2.90
2019-05-17T07:59:52.383Z,4.30
2019-05-17T08:00:32.679Z,5.30
2019-05-17T08:01:12.629Z,6.17
2019-05-17T08:01:50.538Z,3.50
2019-05-17T08:02:30.673Z,4.07
2019-05-17T08:03:12.959Z,4.50
2019-05-17T08:03:50.189Z,3.90
2019-05-17T08:04:29.926Z,7.43
2019-05-17T08:05:10.097Z,5.03
2019-05-17T08:05:50.454Z,5.07
2019-05-17T08:06:27.384Z,3.70
2019-05-17T08:07:04.643Z,6.10
2019-05-17T08:07:42.742Z,8.93
2019-05-17T08:08:21.134Z,5.17
2019-05-17T08:09:01.305Z,4.20
2019-05-17T08:09:40.278Z,4.53
2019-05-17T08:10:20.345Z,4.80
2019-05-17T08:11:00.142Z,4.00
2019-05-17T08:11:39.511Z,4.33
2019-05-17T08:12:19.856Z,4.00
2019-05-17T08:12:56.406Z,3.00
2019-05-17T08:13:33.928Z,4.30
2019-05-17T08:14:12.329Z,3.80
2019-05-17T08:14:50.423Z,3.93
2019-05-17T08:15:30.398Z,4.20
2019-05-17T08:16:10.303Z,4.67
2019-05-17T08:16:50.063Z,4.63
2019-05-17T08:17:27.028Z,5.10
2019-05-17T08:18:04.801Z,5.70
2019-05-17T08:18:42.081Z,5.57
2019-05-17T08:19:22.448Z,5.93
2019-05-17T08:20:00.951Z,5.87
2019-05-17T08:20:40.156Z,3.50
2019-05-17T08:21:19.727Z,4.23
2019-05-17T08:22:01.006Z,6.23
2019-05-17T08:22:39.861Z,6.90
2019-05-17T08:23:19.892Z,8.03
2019-05-17T08:23:56.834Z,7.27